sensor_id;sensor_type;location;lat;lon;timestamp;P1;durP1;ratioP1;P2;durP2;ratioP2
21114;SDS011;10715;48.546;9.896;2022-08-20T00:01:02;20.83;;;13.50;;
21114;SDS011;10715;48.546;9.896;2022-08-20T00:03:34;24.80;;;14.07;;
21114;SDS011;10715;48.546;9.896;2022-08-20T00:06:05;23.07;;;12.63;;
21114;SDS011;10715;48.546;9.896;2022-08-20T00:08:36;23.67;;;12.50;;
21114;SDS011;10715;48.546;9.896;2022-08-20T00:11:04;16.70;;;11.70;;
21114;SDS011;10715;48.546;9.896;2022-08-20T00:13:32;21.77;;;12.37;;
21114;SDS011;10715;48.546;9.896;2022-08-20T00:16:04;23.87;;;12.70;;
21114;SDS011;10715;48.546;9.896;2022-08-20T00:18:31;24.87;;;11.60;;
21114;SDS011;10715;48.546;9.896;2022-08-20T00:20:57;22.50;;;12.20;;
21114;SDS011;10715;48.546;9.896;2022-08-20T00:23:25;23.87;;;12.20;;
21114;SDS011;10715;48.546;9.896;2022-08-20T00:25:51;16.27;;;12.13;;
21114;SDS011;10715;48.546;9.896;2022-08-20T00:28:17;15.00;;;11.67;;
21114;SDS011;10715;48.546;9.896;2022-08-20T00:30:44;22.30;;;13.60;;
21114;SDS011;10715;48.546;9.896;2022-08-20T00:33:12;20.27;;;9.87;;
21114;SDS011;10715;48.546;9.896;2022-08-20T00:35:42;16.10;;;10.57;;
21114;SDS011;10715;48.546;9.896;2022-08-20T00:38:10;20.73;;;11.73;;
21114;SDS011;10715;48.546;9.896;2022-08-20T00:40:38;21.20;;;11.10;;
21114;SDS011;10715;48.546;9.896;2022-08-20T00:43:22;33.60;;;11.50;;
21114;SDS011;10715;48.546;9.896;2022-08-20T00:45:51;23.43;;;12.17;;
21114;SDS011;10715;48.546;9.896;2022-08-20T00:48:20;15.93;;;10.20;;
21114;SDS011;10715;48.546;9.896;2022-08-20T00:50:48;22.90;;;11.60;;
21114;SDS011;10715;48.546;9.896;2022-08-20T00:53:14;15.57;;;9.97;;
21114;SDS011;10715;48.546;9.896;2022-08-20T00:55:42;21.97;;;11.23;;
21114;SDS011;10715;48.546;9.896;2022-08-20T00:58:08;17.67;;;10.43;;
21114;SDS011;10715;48.546;9.896;2022-08-20T01:00:35;21.40;;;11.63;;
21114;SDS011;10715;48.546;9.896;2022-08-20T01:03:06;23.53;;;11.70;;
21114;SDS011;10715;48.546;9.896;2022-08-20T01:05:34;21.87;;;12.87;;
21114;SDS011;10715;48.546;9.896;2022-08-20T01:08:03;22.27;;;12.17;;
21114;SDS011;10715;48.546;9.896;2022-08-20T01:10:32;32.03;;;13.27;;
21114;SDS011;10715;48.546;9.896;2022-08-20T01:13:00;18.30;;;10.10;;
21114;SDS011;10715;48.546;9.896;2022-08-20T01:15:35;22.87;;;12.17;;
21114;SDS011;10715;48.546;9.896;2022-08-20T01:18:09;25.07;;;12.23;;
21114;SDS011;10715;48.546;9.896;2022-08-20T01:23:41;16.73;;;10.30;;
21114;SDS011;10715;48.546;9.896;2022-08-20T01:26:33;15.43;;;9.37;;
21114;SDS011;10715;48.546;9.896;2022-08-20T01:29:05;22.40;;;11.47;;
21114;SDS011;10715;48.546;9.896;2022-08-20T01:31:34;18.97;;;10.70;;
21114;SDS011;10715;48.546;9.896;2022-08-20T01:34:03;23.50;;;12.23;;
21114;SDS011;10715;48.546;9.896;2022-08-20T01:36:42;18.33;;;12.00;;
21114;SDS011;10715;48.546;9.896;2022-08-20T01:39:18;17.53;;;12.00;;
21114;SDS011;10715;48.546;9.896;2022-08-20T01:44:27;27.77;;;12.90;;
21114;SDS011;10715;48.546;9.896;2022-08-20T01:46:54;25.60;;;11.53;;
21114;SDS011;10715;48.546;9.896;2022-08-20T01:49:22;25.53;;;12.57;;
21114;SDS011;10715;48.546;9.896;2022-08-20T01:51:59;15.90;;;11.87;;
21114;SDS011;10715;48.546;9.896;2022-08-20T01:54:31;17.37;;;11.43;;
21114;SDS011;10715;48.546;9.896;2022-08-20T01:57:03;24.77;;;11.60;;
21114;SDS011;10715;48.546;9.896;2022-08-20T01:59:37;28.10;;;11.47;;
21114;SDS011;10715;48.546;9.896;2022-08-20T02:02:03;23.97;;;12.37;;
21114;SDS011;10715;48.546;9.896;2022-08-20T02:04:31;26.03;;;12.37;;
21114;SDS011;10715;48.546;9.896;2022-08-20T02:06:59;14.37;;;9.83;;
21114;SDS011;10715;48.546;9.896;2022-08-20T02:09:29;18.93;;;10.13;;
21114;SDS011;10715;48.546;9.896;2022-08-20T02:11:59;17.43;;;9.93;;
21114;SDS011;10715;48.546;9.896;2022-08-20T02:14:27;18.47;;;10.10;;
21114;SDS011;10715;48.546;9.896;2022-08-20T02:16:53;18.90;;;12.03;;
21114;SDS011;10715;48.546;9.896;2022-08-20T02:19:26;17.60;;;10.83;;
21114;SDS011;10715;48.546;9.896;2022-08-20T02:21:57;18.37;;;10.70;;
21114;SDS011;10715;48.546;9.896;2022-08-20T02:24:26;17.67;;;10.53;;
21114;SDS011;10715;48.546;9.896;2022-08-20T02:26:52;20.50;;;10.10;;
21114;SDS011;10715;48.546;9.896;2022-08-20T02:29:18;28.17;;;13.50;;
21114;SDS011;10715;48.546;9.896;2022-08-20T02:31:44;15.23;;;10.60;;
21114;SDS011;10715;48.546;9.896;2022-08-20T02:34:11;17.97;;;9.70;;
21114;SDS011;10715;48.546;9.896;2022-08-20T02:36:38;15.03;;;9.60;;
21114;SDS011;10715;48.546;9.896;2022-08-20T02:39:08;13.27;;;8.97;;
21114;SDS011;10715;48.546;9.896;2022-08-20T02:41:36;16.43;;;9.83;;
21114;SDS011;10715;48.546;9.896;2022-08-20T02:44:03;17.07;;;10.40;;
21114;SDS011;10715;48.546;9.896;2022-08-20T02:46:30;16.30;;;10.03;;
21114;SDS011;10715;48.546;9.896;2022-08-20T02:48:56;22.63;;;10.40;;
21114;SDS011;10715;48.546;9.896;2022-08-20T02:51:23;13.40;;;10.37;;
21114;SDS011;10715;48.546;9.896;2022-08-20T02:53:49;16.37;;;10.20;;
21114;SDS011;10715;48.546;9.896;2022-08-20T02:56:15;16.23;;;9.30;;
21114;SDS011;10715;48.546;9.896;2022-08-20T02:58:41;16.70;;;9.17;;
21114;SDS011;10715;48.546;9.896;2022-08-20T03:01:08;17.47;;;10.07;;
21114;SDS011;10715;48.546;9.896;2022-08-20T03:03:37;13.67;;;9.47;;
21114;SDS011;10715;48.546;9.896;2022-08-20T03:06:06;12.77;;;9.57;;
21114;SDS011;10715;48.546;9.896;2022-08-20T03:08:34;14.23;;;8.70;;
21114;SDS011;10715;48.546;9.896;2022-08-20T03:11:00;13.00;;;8.03;;
21114;SDS011;10715;48.546;9.896;2022-08-20T03:13:27;13.77;;;9.33;;
21114;SDS011;10715;48.546;9.896;2022-08-20T03:15:54;19.27;;;8.93;;
21114;SDS011;10715;48.546;9.896;2022-08-20T03:18:23;14.77;;;8.87;;
21114;SDS011;10715;48.546;9.896;2022-08-20T03:20:50;13.13;;;9.17;;
21114;SDS011;10715;48.546;9.896;2022-08-20T03:23:16;9.17;;;7.50;;
21114;SDS011;10715;48.546;9.896;2022-08-20T03:25:43;7.93;;;7.07;;
21114;SDS011;10715;48.546;9.896;2022-08-20T03:28:10;11.20;;;8.40;;
21114;SDS011;10715;48.546;9.896;2022-08-20T03:30:36;14.37;;;7.27;;
21114;SDS011;10715;48.546;9.896;2022-08-20T03:33:02;13.20;;;7.93;;
21114;SDS011;10715;48.546;9.896;2022-08-20T03:35:28;13.50;;;7.13;;
21114;SDS011;10715;48.546;9.896;2022-08-20T03:37:55;15.37;;;8.10;;
21114;SDS011;10715;48.546;9.896;2022-08-20T03:40:26;12.53;;;8.20;;
21114;SDS011;10715;48.546;9.896;2022-08-20T03:42:56;10.60;;;7.83;;
21114;SDS011;10715;48.546;9.896;2022-08-20T03:45:23;11.37;;;8.03;;
21114;SDS011;10715;48.546;9.896;2022-08-20T03:47:51;18.37;;;8.63;;
21114;SDS011;10715;48.546;9.896;2022-08-20T03:50:19;8.97;;;7.50;;
21114;SDS011;10715;48.546;9.896;2022-08-20T03:52:47;7.97;;;7.17;;
21114;SDS011;10715;48.546;9.896;2022-08-20T03:55:13;14.47;;;6.67;;
21114;SDS011;10715;48.546;9.896;2022-08-20T03:57:46;13.47;;;7.67;;
21114;SDS011;10715;48.546;9.896;2022-08-20T04:00:18;8.97;;;6.97;;
21114;SDS011;10715;48.546;9.896;2022-08-20T04:02:49;21.47;;;6.93;;
21114;SDS011;10715;48.546;9.896;2022-08-20T04:05:15;9.30;;;6.80;;
21114;SDS011;10715;48.546;9.896;2022-08-20T04:07:41;9.33;;;7.30;;
21114;SDS011;10715;48.546;9.896;2022-08-20T04:10:08;10.70;;;7.27;;
21114;SDS011;10715;48.546;9.896;2022-08-20T04:12:34;7.87;;;6.70;;
21114;SDS011;10715;48.546;9.896;2022-08-20T04:15:06;10.30;;;7.40;;
21114;SDS011;10715;48.546;9.896;2022-08-20T04:17:37;8.00;;;6.83;;
21114;SDS011;10715;48.546;9.896;2022-08-20T04:20:06;9.37;;;7.03;;
21114;SDS011;10715;48.546;9.896;2022-08-20T04:22:35;18.93;;;8.60;;
21114;SDS011;10715;48.546;9.896;2022-08-20T04:25:02;7.70;;;6.60;;
21114;SDS011;10715;48.546;9.896;2022-08-20T04:27:29;14.60;;;7.70;;
21114;SDS011;10715;48.546;9.896;2022-08-20T04:29:56;9.17;;;6.77;;
21114;SDS011;10715;48.546;9.896;2022-08-20T04:32:24;9.40;;;7.33;;
21114;SDS011;10715;48.546;9.896;2022-08-20T04:34:50;12.67;;;7.93;;
21114;SDS011;10715;48.546;9.896;2022-08-20T04:37:19;23.37;;;9.20;;
21114;SDS011;10715;48.546;9.896;2022-08-20T04:39:47;11.27;;;7.23;;
21114;SDS011;10715;48.546;9.896;2022-08-20T04:42:34;13.27;;;8.70;;
21114;SDS011;10715;48.546;9.896;2022-08-20T04:45:01;13.97;;;8.40;;
21114;SDS011;10715;48.546;9.896;2022-08-20T04:47:30;13.13;;;8.17;;
21114;SDS011;10715;48.546;9.896;2022-08-20T04:49:59;16.23;;;8.83;;
21114;SDS011;10715;48.546;9.896;2022-08-20T04:52:28;17.27;;;11.00;;
21114;SDS011;10715;48.546;9.896;2022-08-20T04:54:56;26.53;;;10.77;;
21114;SDS011;10715;48.546;9.896;2022-08-20T04:57:22;18.07;;;11.97;;
21114;SDS011;10715;48.546;9.896;2022-08-20T04:59:50;14.33;;;8.80;;
21114;SDS011;10715;48.546;9.896;2022-08-20T05:02:17;13.20;;;8.60;;
21114;SDS011;10715;48.546;9.896;2022-08-20T05:04:43;13.93;;;9.30;;
21114;SDS011;10715;48.546;9.896;2022-08-20T05:07:10;16.90;;;11.60;;
21114;SDS011;10715;48.546;9.896;2022-08-20T05:09:36;13.20;;;8.77;;
21114;SDS011;10715;48.546;9.896;2022-08-20T05:12:02;20.30;;;11.13;;
21114;SDS011;10715;48.546;9.896;2022-08-20T05:14:28;14.27;;;10.40;;
21114;SDS011;10715;48.546;9.896;2022-08-20T05:16:55;19.57;;;11.90;;
21114;SDS011;10715;48.546;9.896;2022-08-20T05:19:23;13.33;;;9.70;;
21114;SDS011;10715;48.546;9.896;2022-08-20T05:21:50;11.30;;;10.10;;
21114;SDS011;10715;48.546;9.896;2022-08-20T05:24:17;19.10;;;11.30;;
21114;SDS011;10715;48.546;9.896;2022-08-20T05:26:45;10.50;;;9.30;;
21114;SDS011;10715;48.546;9.896;2022-08-20T05:29:11;11.93;;;9.13;;
21114;SDS011;10715;48.546;9.896;2022-08-20T05:31:37;12.83;;;9.10;;
21114;SDS011;10715;48.546;9.896;2022-08-20T05:34:04;13.77;;;9.53;;
21114;SDS011;10715;48.546;9.896;2022-08-20T05:36:35;13.03;;;9.00;;
21114;SDS011;10715;48.546;9.896;2022-08-20T05:39:04;10.57;;;8.13;;
21114;SDS011;10715;48.546;9.896;2022-08-20T05:41:30;7.97;;;7.17;;
21114;SDS011;10715;48.546;9.896;2022-08-20T05:43:57;10.03;;;8.83;;
21114;SDS011;10715;48.546;9.896;2022-08-20T05:46:26;11.60;;;7.57;;
21114;SDS011;10715;48.546;9.896;2022-08-20T05:48:52;8.30;;;7.10;;
21114;SDS011;10715;48.546;9.896;2022-08-20T05:51:18;7.03;;;6.30;;
21114;SDS011;10715;48.546;9.896;2022-08-20T05:53:43;6.30;;;5.00;;
21114;SDS011;10715;48.546;9.896;2022-08-20T05:56:09;6.00;;;5.50;;
21114;SDS011;10715;48.546;9.896;2022-08-20T05:58:35;5.67;;;5.17;;
21114;SDS011;10715;48.546;9.896;2022-08-20T06:01:01;7.97;;;7.00;;
21114;SDS011;10715;48.546;9.896;2022-08-20T06:03:27;9.13;;;5.20;;
21114;SDS011;10715;48.546;9.896;2022-08-20T06:06:12;5.87;;;5.17;;
21114;SDS011;10715;48.546;9.896;2022-08-20T06:08:38;5.63;;;5.13;;
21114;SDS011;10715;48.546;9.896;2022-08-20T06:11:04;6.33;;;5.27;;
21114;SDS011;10715;48.546;9.896;2022-08-20T06:13:30;5.47;;;5.07;;
21114;SDS011;10715;48.546;9.896;2022-08-20T06:15:56;4.70;;;4.30;;
21114;SDS011;10715;48.546;9.896;2022-08-20T06:18:22;6.20;;;5.30;;
21114;SDS011;10715;48.546;9.896;2022-08-20T06:20:48;4.83;;;4.50;;
21114;SDS011;10715;48.546;9.896;2022-08-20T06:23:14;5.40;;;5.00;;
21114;SDS011;10715;48.546;9.896;2022-08-20T06:25:40;5.23;;;4.73;;
21114;SDS011;10715;48.546;9.896;2022-08-20T06:28:07;5.03;;;3.90;;
21114;SDS011;10715;48.546;9.896;2022-08-20T06:30:34;4.63;;;4.23;;
21114;SDS011;10715;48.546;9.896;2022-08-20T06:33:00;6.47;;;5.00;;
21114;SDS011;10715;48.546;9.896;2022-08-20T06:35:26;4.70;;;4.07;;
21114;SDS011;10715;48.546;9.896;2022-08-20T06:37:52;5.23;;;4.73;;
21114;SDS011;10715;48.546;9.896;2022-08-20T06:40:19;4.70;;;4.40;;
21114;SDS011;10715;48.546;9.896;2022-08-20T06:42:50;5.67;;;5.20;;
21114;SDS011;10715;48.546;9.896;2022-08-20T06:45:17;4.63;;;4.33;;
21114;SDS011;10715;48.546;9.896;2022-08-20T06:47:49;5.03;;;4.70;;
21114;SDS011;10715;48.546;9.896;2022-08-20T06:50:21;4.37;;;3.77;;
21114;SDS011;10715;48.546;9.896;2022-08-20T06:52:50;5.80;;;4.97;;
21114;SDS011;10715;48.546;9.896;2022-08-20T06:55:15;3.60;;;3.30;;
21114;SDS011;10715;48.546;9.896;2022-08-20T06:57:41;4.07;;;3.67;;
21114;SDS011;10715;48.546;9.896;2022-08-20T07:00:13;3.60;;;3.37;;
21114;SDS011;10715;48.546;9.896;2022-08-20T07:02:41;3.30;;;3.03;;
21114;SDS011;10715;48.546;9.896;2022-08-20T07:05:07;7.47;;;4.33;;
21114;SDS011;10715;48.546;9.896;2022-08-20T07:07:33;4.20;;;3.83;;
21114;SDS011;10715;48.546;9.896;2022-08-20T07:09:59;5.57;;;3.70;;
21114;SDS011;10715;48.546;9.896;2022-08-20T07:12:33;3.70;;;3.40;;
21114;SDS011;10715;48.546;9.896;2022-08-20T07:15:00;5.40;;;4.90;;
21114;SDS011;10715;48.546;9.896;2022-08-20T07:17:29;10.93;;;7.80;;
21114;SDS011;10715;48.546;9.896;2022-08-20T07:19:55;5.57;;;5.10;;
21114;SDS011;10715;48.546;9.896;2022-08-20T07:22:21;6.13;;;5.70;;
21114;SDS011;10715;48.546;9.896;2022-08-20T07:24:48;4.37;;;4.00;;
21114;SDS011;10715;48.546;9.896;2022-08-20T07:27:18;3.90;;;3.60;;
21114;SDS011;10715;48.546;9.896;2022-08-20T07:29:45;5.63;;;3.00;;
21114;SDS011;10715;48.546;9.896;2022-08-20T07:32:29;3.97;;;3.70;;
21114;SDS011;10715;48.546;9.896;2022-08-20T07:35:09;3.13;;;2.93;;
21114;SDS011;10715;48.546;9.896;2022-08-20T07:37:37;4.17;;;3.87;;
21114;SDS011;10715;48.546;9.896;2022-08-20T07:40:06;3.27;;;2.90;;
21114;SDS011;10715;48.546;9.896;2022-08-20T07:42:35;4.90;;;4.40;;
21114;SDS011;10715;48.546;9.896;2022-08-20T07:45:04;4.50;;;4.30;;
21114;SDS011;10715;48.546;9.896;2022-08-20T07:47:32;3.60;;;3.40;;
21114;SDS011;10715;48.546;9.896;2022-08-20T07:49:59;4.03;;;3.83;;
21114;SDS011;10715;48.546;9.896;2022-08-20T07:52:25;2.57;;;2.47;;
21114;SDS011;10715;48.546;9.896;2022-08-20T07:54:51;3.87;;;2.83;;
21114;SDS011;10715;48.546;9.896;2022-08-20T07:57:17;2.57;;;2.37;;
21114;SDS011;10715;48.546;9.896;2022-08-20T07:59:43;3.47;;;2.30;;
21114;SDS011;10715;48.546;9.896;2022-08-20T08:02:10;3.00;;;2.80;;
21114;SDS011;10715;48.546;9.896;2022-08-20T08:04:36;4.70;;;2.37;;
21114;SDS011;10715;48.546;9.896;2022-08-20T08:07:03;3.27;;;3.07;;
21114;SDS011;10715;48.546;9.896;2022-08-20T08:09:29;3.47;;;3.17;;
21114;SDS011;10715;48.546;9.896;2022-08-20T08:11:57;5.70;;;5.20;;
21114;SDS011;10715;48.546;9.896;2022-08-20T08:14:27;3.53;;;3.33;;
21114;SDS011;10715;48.546;9.896;2022-08-20T08:16:56;3.10;;;2.90;;
21114;SDS011;10715;48.546;9.896;2022-08-20T08:19:24;2.90;;;2.70;;
21114;SDS011;10715;48.546;9.896;2022-08-20T08:21:52;5.80;;;2.43;;
21114;SDS011;10715;48.546;9.896;2022-08-20T08:24:20;2.30;;;2.20;;
21114;SDS011;10715;48.546;9.896;2022-08-20T08:26:45;2.30;;;2.20;;
21114;SDS011;10715;48.546;9.896;2022-08-20T08:29:13;2.43;;;2.10;;
21114;SDS011;10715;48.546;9.896;2022-08-20T08:31:40;2.33;;;2.13;;
21114;SDS011;10715;48.546;9.896;2022-08-20T08:34:06;4.00;;;1.70;;
21114;SDS011;10715;48.546;9.896;2022-08-20T08:36:33;2.23;;;1.67;;
21114;SDS011;10715;48.546;9.896;2022-08-20T08:38:58;3.10;;;1.57;;
21114;SDS011;10715;48.546;9.896;2022-08-20T08:41:31;2.40;;;2.20;;
21114;SDS011;10715;48.546;9.896;2022-08-20T08:44:01;2.30;;;2.00;;
21114;SDS011;10715;48.546;9.896;2022-08-20T08:46:30;2.67;;;2.47;;
21114;SDS011;10715;48.546;9.896;2022-08-20T08:48:58;1.90;;;1.80;;
21114;SDS011;10715;48.546;9.896;2022-08-20T08:51:27;2.10;;;1.70;;
21114;SDS011;10715;48.546;9.896;2022-08-20T08:53:58;2.87;;;2.67;;
21114;SDS011;10715;48.546;9.896;2022-08-20T08:56:28;6.70;;;2.80;;
21114;SDS011;10715;48.546;9.896;2022-08-20T08:59:05;2.80;;;2.60;;
21114;SDS011;10715;48.546;9.896;2022-08-20T09:01:44;3.40;;;2.40;;
21114;SDS011;10715;48.546;9.896;2022-08-20T09:04:13;2.80;;;2.60;;
21114;SDS011;10715;48.546;9.896;2022-08-20T09:06:41;3.03;;;2.83;;
21114;SDS011;10715;48.546;9.896;2022-08-20T09:09:18;2.40;;;2.30;;
21114;SDS011;10715;48.546;9.896;2022-08-20T09:11:51;3.23;;;2.93;;
21114;SDS011;10715;48.546;9.896;2022-08-20T09:14:19;2.90;;;2.70;;
21114;SDS011;10715;48.546;9.896;2022-08-20T09:16:48;4.97;;;2.83;;
21114;SDS011;10715;48.546;9.896;2022-08-20T09:19:14;9.27;;;3.50;;
21114;SDS011;10715;48.546;9.896;2022-08-20T09:21:40;5.00;;;3.40;;
21114;SDS011;10715;48.546;9.896;2022-08-20T09:24:06;3.47;;;3.27;;
21114;SDS011;10715;48.546;9.896;2022-08-20T09:26:32;2.77;;;2.57;;
21114;SDS011;10715;48.546;9.896;2022-08-20T09:28:57;2.90;;;2.70;;
21114;SDS011;10715;48.546;9.896;2022-08-20T09:31:23;4.30;;;2.77;;
21114;SDS011;10715;48.546;9.896;2022-08-20T09:33:49;3.10;;;2.90;;
21114;SDS011;10715;48.546;9.896;2022-08-20T09:36:16;3.10;;;2.90;;
21114;SDS011;10715;48.546;9.896;2022-08-20T09:38:42;3.20;;;3.00;;
21114;SDS011;10715;48.546;9.896;2022-08-20T09:41:07;2.60;;;2.40;;
21114;SDS011;10715;48.546;9.896;2022-08-20T09:43:33;2.13;;;2.03;;
21114;SDS011;10715;48.546;9.896;2022-08-20T09:45:59;2.70;;;2.50;;
21114;SDS011;10715;48.546;9.896;2022-08-20T09:48:25;3.57;;;3.37;;
21114;SDS011;10715;48.546;9.896;2022-08-20T09:50:51;3.07;;;2.97;;
21114;SDS011;10715;48.546;9.896;2022-08-20T09:53:17;2.30;;;2.20;;
21114;SDS011;10715;48.546;9.896;2022-08-20T09:55:45;2.83;;;2.63;;
21114;SDS011;10715;48.546;9.896;2022-08-20T09:58:23;2.63;;;2.53;;
21114;SDS011;10715;48.546;9.896;2022-08-20T10:00:55;2.40;;;2.27;;
21114;SDS011;10715;48.546;9.896;2022-08-20T10:03:21;3.80;;;2.73;;
21114;SDS011;10715;48.546;9.896;2022-08-20T10:05:47;4.57;;;2.00;;
21114;SDS011;10715;48.546;9.896;2022-08-20T10:08:13;3.40;;;2.60;;
21114;SDS011;10715;48.546;9.896;2022-08-20T10:10:39;2.63;;;2.43;;
21114;SDS011;10715;48.546;9.896;2022-08-20T10:13:05;3.17;;;1.83;;
21114;SDS011;10715;48.546;9.896;2022-08-20T10:15:31;3.13;;;2.10;;
21114;SDS011;10715;48.546;9.896;2022-08-20T10:17:57;1.97;;;1.87;;
21114;SDS011;10715;48.546;9.896;2022-08-20T10:20:28;2.50;;;2.30;;
21114;SDS011;10715;48.546;9.896;2022-08-20T10:22:54;2.57;;;2.37;;
21114;SDS011;10715;48.546;9.896;2022-08-20T10:25:19;2.07;;;1.90;;
21114;SDS011;10715;48.546;9.896;2022-08-20T10:27:45;2.00;;;1.90;;
21114;SDS011;10715;48.546;9.896;2022-08-20T10:30:11;2.30;;;1.93;;
21114;SDS011;10715;48.546;9.896;2022-08-20T10:32:37;2.50;;;1.90;;
21114;SDS011;10715;48.546;9.896;2022-08-20T10:35:03;2.23;;;2.03;;
21114;SDS011;10715;48.546;9.896;2022-08-20T10:37:29;1.80;;;1.03;;
21114;SDS011;10715;48.546;9.896;2022-08-20T10:39:55;2.20;;;2.00;;
21114;SDS011;10715;48.546;9.896;2022-08-20T10:42:20;1.43;;;1.33;;
21114;SDS011;10715;48.546;9.896;2022-08-20T10:44:47;2.10;;;2.00;;
21114;SDS011;10715;48.546;9.896;2022-08-20T10:47:18;2.00;;;1.80;;
21114;SDS011;10715;48.546;9.896;2022-08-20T10:49:50;2.53;;;2.33;;
21114;SDS011;10715;48.546;9.896;2022-08-20T10:52:17;2.17;;;1.97;;
21114;SDS011;10715;48.546;9.896;2022-08-20T10:54:43;1.80;;;1.70;;
21114;SDS011;10715;48.546;9.896;2022-08-20T10:57:12;2.10;;;1.90;;
21114;SDS011;10715;48.546;9.896;2022-08-20T10:59:43;2.53;;;2.33;;
21114;SDS011;10715;48.546;9.896;2022-08-20T11:02:10;2.33;;;1.53;;
21114;SDS011;10715;48.546;9.896;2022-08-20T11:04:37;2.20;;;2.00;;
21114;SDS011;10715;48.546;9.896;2022-08-20T11:07:18;3.50;;;2.47;;
21114;SDS011;10715;48.546;9.896;2022-08-20T11:09:48;2.10;;;1.90;;
21114;SDS011;10715;48.546;9.896;2022-08-20T11:12:14;1.80;;;1.63;;
21114;SDS011;10715;48.546;9.896;2022-08-20T11:14:42;1.83;;;1.73;;
21114;SDS011;10715;48.546;9.896;2022-08-20T11:17:08;1.57;;;1.47;;
21114;SDS011;10715;48.546;9.896;2022-08-20T11:19:41;2.30;;;1.87;;
21114;SDS011;10715;48.546;9.896;2022-08-20T11:22:08;1.20;;;1.10;;
21114;SDS011;10715;48.546;9.896;2022-08-20T11:24:35;1.73;;;1.63;;
21114;SDS011;10715;48.546;9.896;2022-08-20T11:27:02;2.27;;;1.40;;
21114;SDS011;10715;48.546;9.896;2022-08-20T11:29:29;2.37;;;1.27;;
21114;SDS011;10715;48.546;9.896;2022-08-20T11:31:55;2.40;;;1.63;;
21114;SDS011;10715;48.546;9.896;2022-08-20T11:34:21;1.80;;;1.70;;
21114;SDS011;10715;48.546;9.896;2022-08-20T11:36:46;1.50;;;1.40;;
21114;SDS011;10715;48.546;9.896;2022-08-20T11:39:12;1.63;;;1.23;;
21114;SDS011;10715;48.546;9.896;2022-08-20T11:41:39;1.63;;;1.53;;
21114;SDS011;10715;48.546;9.896;2022-08-20T11:44:04;1.13;;;1.03;;
21114;SDS011;10715;48.546;9.896;2022-08-20T11:46:30;1.83;;;1.73;;
21114;SDS011;10715;48.546;9.896;2022-08-20T11:48:59;1.30;;;1.20;;
21114;SDS011;10715;48.546;9.896;2022-08-20T11:51:25;3.37;;;0.93;;
21114;SDS011;10715;48.546;9.896;2022-08-20T11:53:51;2.43;;;0.60;;
21114;SDS011;10715;48.546;9.896;2022-08-20T11:56:17;2.17;;;0.60;;
21114;SDS011;10715;48.546;9.896;2022-08-20T11:58:44;3.17;;;0.50;;
21114;SDS011;10715;48.546;9.896;2022-08-20T12:01:11;28.83;;;2.77;;
21114;SDS011;10715;48.546;9.896;2022-08-20T12:03:37;7.20;;;0.90;;
21114;SDS011;10715;48.546;9.896;2022-08-20T12:06:03;1.50;;;1.13;;
21114;SDS011;10715;48.546;9.896;2022-08-20T12:08:29;3.13;;;1.63;;
21114;SDS011;10715;48.546;9.896;2022-08-20T12:10:56;1.77;;;1.10;;
21114;SDS011;10715;48.546;9.896;2022-08-20T12:13:23;1.27;;;1.17;;
21114;SDS011;10715;48.546;9.896;2022-08-20T12:15:51;4.30;;;1.93;;
21114;SDS011;10715;48.546;9.896;2022-08-20T12:18:18;2.73;;;1.90;;
21114;SDS011;10715;48.546;9.896;2022-08-20T12:20:44;5.77;;;3.37;;
21114;SDS011;10715;48.546;9.896;2022-08-20T12:23:10;3.03;;;2.70;;
21114;SDS011;10715;48.546;9.896;2022-08-20T12:25:36;3.37;;;3.17;;
21114;SDS011;10715;48.546;9.896;2022-08-20T12:28:02;4.37;;;4.00;;
21114;SDS011;10715;48.546;9.896;2022-08-20T12:30:29;5.60;;;4.87;;
21114;SDS011;10715;48.546;9.896;2022-08-20T12:32:55;4.43;;;4.13;;
21114;SDS011;10715;48.546;9.896;2022-08-20T12:35:21;6.77;;;4.33;;
21114;SDS011;10715;48.546;9.896;2022-08-20T12:37:47;6.23;;;4.70;;
21114;SDS011;10715;48.546;9.896;2022-08-20T12:40:14;8.73;;;6.07;;
21114;SDS011;10715;48.546;9.896;2022-08-20T12:42:48;5.97;;;5.57;;
21114;SDS011;10715;48.546;9.896;2022-08-20T12:45:14;6.27;;;5.77;;
21114;SDS011;10715;48.546;9.896;2022-08-20T12:47:42;6.80;;;6.27;;
21114;SDS011;10715;48.546;9.896;2022-08-20T12:50:11;8.50;;;6.90;;
21114;SDS011;10715;48.546;9.896;2022-08-20T12:52:38;5.90;;;5.43;;
21114;SDS011;10715;48.546;9.896;2022-08-20T12:55:05;5.50;;;5.20;;
21114;SDS011;10715;48.546;9.896;2022-08-20T13:00:04;7.07;;;4.50;;
21114;SDS011;10715;48.546;9.896;2022-08-20T13:02:35;3.70;;;3.10;;
21114;SDS011;10715;48.546;9.896;2022-08-20T13:05:03;2.63;;;2.53;;
21114;SDS011;10715;48.546;9.896;2022-08-20T13:07:30;3.33;;;3.03;;
21114;SDS011;10715;48.546;9.896;2022-08-20T13:09:57;3.17;;;2.87;;
21114;SDS011;10715;48.546;9.896;2022-08-20T13:12:23;3.00;;;2.67;;
21114;SDS011;10715;48.546;9.896;2022-08-20T13:14:49;2.77;;;2.67;;
21114;SDS011;10715;48.546;9.896;2022-08-20T13:17:16;5.53;;;3.57;;
21114;SDS011;10715;48.546;9.896;2022-08-20T13:19:43;3.13;;;2.93;;
21114;SDS011;10715;48.546;9.896;2022-08-20T13:22:09;6.40;;;3.43;;
21114;SDS011;10715;48.546;9.896;2022-08-20T13:24:36;2.83;;;2.63;;
21114;SDS011;10715;48.546;9.896;2022-08-20T13:27:03;1.30;;;1.20;;
21114;SDS011;10715;48.546;9.896;2022-08-20T13:29:31;1.53;;;1.43;;
21114;SDS011;10715;48.546;9.896;2022-08-20T13:31:57;1.73;;;1.63;;
21114;SDS011;10715;48.546;9.896;2022-08-20T13:34:23;2.30;;;2.10;;
21114;SDS011;10715;48.546;9.896;2022-08-20T13:36:48;2.97;;;1.60;;
21114;SDS011;10715;48.546;9.896;2022-08-20T13:39:14;3.77;;;1.97;;
21114;SDS011;10715;48.546;9.896;2022-08-20T13:41:40;1.67;;;1.57;;
21114;SDS011;10715;48.546;9.896;2022-08-20T13:44:05;2.13;;;1.40;;
21114;SDS011;10715;48.546;9.896;2022-08-20T13:46:31;1.40;;;0.83;;
21114;SDS011;10715;48.546;9.896;2022-08-20T13:48:57;1.23;;;1.13;;
21114;SDS011;10715;48.546;9.896;2022-08-20T13:51:22;4.13;;;1.13;;
21114;SDS011;10715;48.546;9.896;2022-08-20T13:53:48;1.00;;;0.90;;
21114;SDS011;10715;48.546;9.896;2022-08-20T13:56:14;1.10;;;0.97;;
21114;SDS011;10715;48.546;9.896;2022-08-20T13:58:40;1.40;;;0.87;;
21114;SDS011;10715;48.546;9.896;2022-08-20T14:01:05;1.10;;;0.70;;
21114;SDS011;10715;48.546;9.896;2022-08-20T14:03:31;1.10;;;1.00;;
21114;SDS011;10715;48.546;9.896;2022-08-20T14:05:59;1.20;;;0.80;;
21114;SDS011;10715;48.546;9.896;2022-08-20T14:08:26;1.87;;;1.00;;
21114;SDS011;10715;48.546;9.896;2022-08-20T14:10:52;1.17;;;1.00;;
21114;SDS011;10715;48.546;9.896;2022-08-20T14:13:19;1.03;;;0.93;;
21114;SDS011;10715;48.546;9.896;2022-08-20T14:15:46;1.00;;;0.70;;
21114;SDS011;10715;48.546;9.896;2022-08-20T14:18:13;1.20;;;0.90;;
21114;SDS011;10715;48.546;9.896;2022-08-20T14:20:39;1.10;;;0.80;;
21114;SDS011;10715;48.546;9.896;2022-08-20T14:23:06;1.50;;;1.00;;
21114;SDS011;10715;48.546;9.896;2022-08-20T14:25:33;1.10;;;1.00;;
21114;SDS011;10715;48.546;9.896;2022-08-20T14:28:07;1.17;;;1.03;;
21114;SDS011;10715;48.546;9.896;2022-08-20T14:30:35;3.53;;;1.13;;
21114;SDS011;10715;48.546;9.896;2022-08-20T14:33:00;1.27;;;0.77;;
21114;SDS011;10715;48.546;9.896;2022-08-20T14:35:26;0.80;;;0.60;;
21114;SDS011;10715;48.546;9.896;2022-08-20T14:37:53;1.10;;;0.93;;
21114;SDS011;10715;48.546;9.896;2022-08-20T14:40:21;1.63;;;0.60;;
21114;SDS011;10715;48.546;9.896;2022-08-20T14:42:49;0.87;;;0.63;;
21114;SDS011;10715;48.546;9.896;2022-08-20T14:45:15;1.00;;;0.63;;
21114;SDS011;10715;48.546;9.896;2022-08-20T14:47:43;0.90;;;0.60;;
21114;SDS011;10715;48.546;9.896;2022-08-20T14:50:14;1.10;;;0.50;;
21114;SDS011;10715;48.546;9.896;2022-08-20T14:52:42;0.70;;;0.57;;